sensor_id;sensor_type;location;lat;lon;timestamp;P1;durP1;ratioP1;P2;durP2;ratioP2
25637;SDS011;13496;51.040;13.680;2023-03-30T00:00:30;2.63;;;2.43;;
25637;SDS011;13496;51.040;13.680;2023-03-30T00:05:33;3.00;;;2.70;;
25637;SDS011;13496;51.040;13.680;2023-03-30T00:10:35;2.90;;;2.60;;
25637;SDS011;13496;51.040;13.680;2023-03-30T00:15:39;3.30;;;3.00;;
25637;SDS011;13496;51.040;13.680;2023-03-30T00:20:41;2.73;;;2.53;;
25637;SDS011;13496;51.040;13.680;2023-03-30T00:25:45;3.30;;;3.00;;
25637;SDS011;13496;51.040;13.680;2023-03-30T00:30:47;3.10;;;2.90;;
25637;SDS011;13496;51.040;13.680;2023-03-30T00:35:53;3.23;;;2.93;;
25637;SDS011;13496;51.040;13.680;2023-03-30T00:40:57;3.27;;;2.97;;
25637;SDS011;13496;51.040;13.680;2023-03-30T00:46:00;3.13;;;2.93;;
25637;SDS011;13496;51.040;13.680;2023-03-30T00:51:06;3.27;;;2.93;;
25637;SDS011;13496;51.040;13.680;2023-03-30T00:56:10;3.30;;;3.00;;
25637;SDS011;13496;51.040;13.680;2023-03-30T01:01:15;3.20;;;2.90;;
25637;SDS011;13496;51.040;13.680;2023-03-30T01:06:26;3.20;;;2.90;;
25637;SDS011;13496;51.040;13.680;2023-03-30T01:11:30;2.93;;;2.60;;
25637;SDS011;13496;51.040;13.680;2023-03-30T01:16:52;2.50;;;2.30;;
25637;SDS011;13496;51.040;13.680;2023-03-30T01:49:21;2.97;;;2.77;;
25637;SDS011;13496;51.040;13.680;2023-03-30T01:54:36;3.10;;;2.63;;
25637;SDS011;13496;51.040;13.680;2023-03-30T01:59:43;3.70;;;2.97;;
25637;SDS011;13496;51.040;13.680;2023-03-30T02:04:47;2.90;;;2.60;;
25637;SDS011;13496;51.040;13.680;2023-03-30T02:09:55;3.23;;;2.80;;
25637;SDS011;13496;51.040;13.680;2023-03-30T02:15:02;3.00;;;2.80;;
25637;SDS011;13496;51.040;13.680;2023-03-30T02:20:09;3.10;;;2.80;;
25637;SDS011;13496;51.040;13.680;2023-03-30T02:25:12;3.00;;;2.77;;
25637;SDS011;13496;51.040;13.680;2023-03-30T02:30:14;3.00;;;2.80;;
25637;SDS011;13496;51.040;13.680;2023-03-30T02:51:05;3.27;;;2.97;;
25637;SDS011;13496;51.040;13.680;2023-03-30T03:02:18;2.70;;;2.50;;
25637;SDS011;13496;51.040;13.680;2023-03-30T03:07:45;2.57;;;2.37;;
25637;SDS011;13496;51.040;13.680;2023-03-30T03:12:48;3.23;;;2.93;;
25637;SDS011;13496;51.040;13.680;2023-03-30T03:17:51;2.80;;;2.60;;
25637;SDS011;13496;51.040;13.680;2023-03-30T03:22:53;2.80;;;2.60;;
25637;SDS011;13496;51.040;13.680;2023-03-30T03:27:55;3.13;;;2.67;;
25637;SDS011;13496;51.040;13.680;2023-03-30T03:33:00;3.00;;;2.70;;
25637;SDS011;13496;51.040;13.680;2023-03-30T03:38:04;2.70;;;2.50;;
25637;SDS011;13496;51.040;13.680;2023-03-30T03:43:10;2.77;;;2.57;;
25637;SDS011;13496;51.040;13.680;2023-03-30T03:48:13;2.90;;;2.70;;
25637;SDS011;13496;51.040;13.680;2023-03-30T03:53:20;2.70;;;2.50;;
25637;SDS011;13496;51.040;13.680;2023-03-30T03:58:24;3.30;;;2.67;;
25637;SDS011;13496;51.040;13.680;2023-03-30T04:03:27;3.00;;;2.70;;
25637;SDS011;13496;51.040;13.680;2023-03-30T04:08:29;3.07;;;2.87;;
25637;SDS011;13496;51.040;13.680;2023-03-30T04:13:39;3.20;;;2.90;;
25637;SDS011;13496;51.040;13.680;2023-03-30T04:19:01;3.50;;;3.20;;
25637;SDS011;13496;51.040;13.680;2023-03-30T04:24:25;2.80;;;2.60;;
25637;SDS011;13496;51.040;13.680;2023-03-30T04:29:50;2.80;;;2.60;;
25637;SDS011;13496;51.040;13.680;2023-03-30T04:35:12;3.27;;;2.97;;
25637;SDS011;13496;51.040;13.680;2023-03-30T04:40:41;3.00;;;2.80;;
25637;SDS011;13496;51.040;13.680;2023-03-30T04:46:20;2.93;;;2.63;;
25637;SDS011;13496;51.040;13.680;2023-03-30T04:51:42;2.80;;;2.60;;
25637;SDS011;13496;51.040;13.680;2023-03-30T04:57:10;3.70;;;2.70;;
25637;SDS011;13496;51.040;13.680;2023-03-30T05:02:14;3.17;;;2.47;;
25637;SDS011;13496;51.040;13.680;2023-03-30T05:07:39;3.00;;;2.67;;
25637;SDS011;13496;51.040;13.680;2023-03-30T05:12:56;2.77;;;2.57;;
25637;SDS011;13496;51.040;13.680;2023-03-30T05:18:15;3.00;;;2.80;;
25637;SDS011;13496;51.040;13.680;2023-03-30T05:23:40;2.67;;;2.47;;
25637;SDS011;13496;51.040;13.680;2023-03-30T05:29:01;2.87;;;2.40;;
25637;SDS011;13496;51.040;13.680;2023-03-30T05:34:04;2.90;;;2.70;;
25637;SDS011;13496;51.040;13.680;2023-03-30T05:39:26;4.07;;;2.70;;
25637;SDS011;13496;51.040;13.680;2023-03-30T05:44:33;2.80;;;2.60;;
25637;SDS011;13496;51.040;13.680;2023-03-30T05:50:04;2.77;;;2.57;;
25637;SDS011;13496;51.040;13.680;2023-03-30T05:55:22;3.27;;;2.80;;
25637;SDS011;13496;51.040;13.680;2023-03-30T06:00:40;2.70;;;2.50;;
25637;SDS011;13496;51.040;13.680;2023-03-30T06:05:52;2.80;;;2.60;;
25637;SDS011;13496;51.040;13.680;2023-03-30T06:10:54;2.93;;;2.73;;
25637;SDS011;13496;51.040;13.680;2023-03-30T06:15:58;2.73;;;2.53;;
25637;SDS011;13496;51.040;13.680;2023-03-30T06:21:02;3.13;;;2.77;;
25637;SDS011;13496;51.040;13.680;2023-03-30T06:26:09;2.40;;;2.20;;
25637;SDS011;13496;51.040;13.680;2023-03-30T06:31:11;3.07;;;2.80;;
25637;SDS011;13496;51.040;13.680;2023-03-30T06:36:16;2.90;;;2.63;;
25637;SDS011;13496;51.040;13.680;2023-03-30T06:41:20;3.03;;;2.60;;
25637;SDS011;13496;51.040;13.680;2023-03-30T06:46:23;3.07;;;2.53;;
25637;SDS011;13496;51.040;13.680;2023-03-30T06:51:26;2.80;;;2.60;;
25637;SDS011;13496;51.040;13.680;2023-03-30T06:56:30;2.90;;;2.60;;
25637;SDS011;13496;51.040;13.680;2023-03-30T07:01:42;2.80;;;2.60;;
25637;SDS011;13496;51.040;13.680;2023-03-30T07:07:00;2.80;;;2.50;;
25637;SDS011;13496;51.040;13.680;2023-03-30T07:12:01;2.40;;;2.20;;
25637;SDS011;13496;51.040;13.680;2023-03-30T07:17:04;3.07;;;2.77;;
25637;SDS011;13496;51.040;13.680;2023-03-30T07:22:07;2.70;;;2.50;;
25637;SDS011;13496;51.040;13.680;2023-03-30T07:27:11;2.63;;;2.43;;
25637;SDS011;13496;51.040;13.680;2023-03-30T07:32:15;2.40;;;2.20;;
25637;SDS011;13496;51.040;13.680;2023-03-30T07:37:18;2.77;;;2.50;;
25637;SDS011;13496;51.040;13.680;2023-03-30T07:42:20;2.80;;;2.50;;
25637;SDS011;13496;51.040;13.680;2023-03-30T07:47:22;2.50;;;2.30;;
25637;SDS011;13496;51.040;13.680;2023-03-30T07:52:25;2.60;;;2.40;;
25637;SDS011;13496;51.040;13.680;2023-03-30T07:57:32;2.70;;;2.40;;
25637;SDS011;13496;51.040;13.680;2023-03-30T08:02:35;2.93;;;2.43;;
25637;SDS011;13496;51.040;13.680;2023-03-30T08:07:37;2.77;;;2.57;;
25637;SDS011;13496;51.040;13.680;2023-03-30T08:12:47;2.67;;;2.47;;
25637;SDS011;13496;51.040;13.680;2023-03-30T08:17:49;2.53;;;2.33;;
25637;SDS011;13496;51.040;13.680;2023-03-30T08:22:50;2.57;;;2.37;;
25637;SDS011;13496;51.040;13.680;2023-03-30T08:27:52;2.37;;;2.17;;
25637;SDS011;13496;51.040;13.680;2023-03-30T08:32:54;2.50;;;2.13;;
25637;SDS011;13496;51.040;13.680;2023-03-30T08:37:55;2.15;;;1.95;;
25637;SDS011;13496;51.040;13.680;2023-03-30T08:48:26;2.30;;;1.93;;
25637;SDS011;13496;51.040;13.680;2023-03-30T08:53:31;2.67;;;2.47;;
25637;SDS011;13496;51.040;13.680;2023-03-30T09:08:59;2.37;;;2.17;;
25637;SDS011;13496;51.040;13.680;2023-03-30T09:14:02;2.23;;;2.07;;
25637;SDS011;13496;51.040;13.680;2023-03-30T09:19:08;2.13;;;2.00;;
25637;SDS011;13496;51.040;13.680;2023-03-30T09:24:16;2.40;;;2.20;;
25637;SDS011;13496;51.040;13.680;2023-03-30T09:30:14;2.30;;;2.10;;
25637;SDS011;13496;51.040;13.680;2023-03-30T09:35:02;2.70;;;2.20;;
25637;SDS011;13496;51.040;13.680;2023-03-30T09:45:38;2.20;;;2.05;;
25637;SDS011;13496;51.040;13.680;2023-03-30T09:50:42;2.30;;;2.10;;
25637;SDS011;13496;51.040;13.680;2023-03-30T10:06:17;3.10;;;2.20;;
25637;SDS011;13496;51.040;13.680;2023-03-30T10:11:20;2.65;;;2.42;;
25637;SDS011;13496;51.040;13.680;2023-03-30T10:16:32;2.40;;;2.10;;
25637;SDS011;13496;51.040;13.680;2023-03-30T10:21:36;2.00;;;1.83;;
25637;SDS011;13496;51.040;13.680;2023-03-30T10:26:39;2.30;;;2.10;;
25637;SDS011;13496;51.040;13.680;2023-03-30T10:31:45;2.00;;;1.80;;
25637;SDS011;13496;51.040;13.680;2023-03-30T10:36:50;2.23;;;1.90;;
25637;SDS011;13496;51.040;13.680;2023-03-30T10:41:53;2.27;;;2.17;;
25637;SDS011;13496;51.040;13.680;2023-03-30T10:52:26;4.60;;;2.20;;
25637;SDS011;13496;51.040;13.680;2023-03-30T10:57:50;2.07;;;1.87;;
25637;SDS011;13496;51.040;13.680;2023-03-30T11:03:07;2.00;;;1.90;;
25637;SDS011;13496;51.040;13.680;2023-03-30T11:08:27;2.43;;;2.07;;
25637;SDS011;13496;51.040;13.680;2023-03-30T11:13:34;1.90;;;1.80;;
25637;SDS011;13496;51.040;13.680;2023-03-30T11:18:45;2.27;;;2.10;;
25637;SDS011;13496;51.040;13.680;2023-03-30T11:24:05;2.20;;;2.00;;
25637;SDS011;13496;51.040;13.680;2023-03-30T11:40:12;1.90;;;1.70;;
25637;SDS011;13496;51.040;13.680;2023-03-30T12:07:16;1.93;;;1.77;;
25637;SDS011;13496;51.040;13.680;2023-03-30T12:12:34;3.03;;;1.80;;
25637;SDS011;13496;51.040;13.680;2023-03-30T12:17:41;1.90;;;1.80;;
25637;SDS011;13496;51.040;13.680;2023-03-30T12:28:55;1.98;;;1.58;;
25637;SDS011;13496;51.040;13.680;2023-03-30T12:34:09;2.03;;;1.83;;
25637;SDS011;13496;51.040;13.680;2023-03-30T12:44:33;2.67;;;1.90;;
25637;SDS011;13496;51.040;13.680;2023-03-30T13:06:04;1.98;;;1.60;;
25637;SDS011;13496;51.040;13.680;2023-03-30T13:11:18;2.80;;;1.98;;
25637;SDS011;13496;51.040;13.680;2023-03-30T13:21:46;1.50;;;1.40;;
25637;SDS011;13496;51.040;13.680;2023-03-30T13:26:49;3.00;;;1.50;;
25637;SDS011;13496;51.040;13.680;2023-03-30T13:31:58;1.50;;;1.40;;
25637;SDS011;13496;51.040;13.680;2023-03-30T13:37:13;1.83;;;1.60;;
25637;SDS011;13496;51.040;13.680;2023-03-30T13:47:59;1.67;;;1.58;;
25637;SDS011;13496;51.040;13.680;2023-03-30T13:53:21;2.35;;;1.52;;
25637;SDS011;13496;51.040;13.680;2023-03-30T13:58:28;1.60;;;1.50;;
25637;SDS011;13496;51.040;13.680;2023-03-30T14:09:07;1.70;;;1.50;;
25637;SDS011;13496;51.040;13.680;2023-03-30T14:14:15;1.70;;;1.60;;
25637;SDS011;13496;51.040;13.680;2023-03-30T14:19:35;1.70;;;1.60;;
25637;SDS011;13496;51.040;13.680;2023-03-30T14:24:38;1.70;;;1.60;;
25637;SDS011;13496;51.040;13.680;2023-03-30T14:29:55;2.38;;;1.67;;
25637;SDS011;13496;51.040;13.680;2023-03-30T14:34:57;1.73;;;1.63;;
25637;SDS011;13496;51.040;13.680;2023-03-30T14:39:59;1.80;;;1.70;;
25637;SDS011;13496;51.040;13.680;2023-03-30T14:45:01;1.70;;;1.60;;
25637;SDS011;13496;51.040;13.680;2023-03-30T14:50:03;2.03;;;1.60;;
25637;SDS011;13496;51.040;13.680;2023-03-30T14:55:10;3.33;;;1.60;;
25637;SDS011;13496;51.040;13.680;2023-03-30T15:00:15;1.40;;;1.30;;
25637;SDS011;13496;51.040;13.680;2023-03-30T15:05:22;1.50;;;1.40;;
25637;SDS011;13496;51.040;13.680;2023-03-30T15:10:34;3.05;;;1.90;;
25637;SDS011;13496;51.040;13.680;2023-03-30T15:15:43;2.35;;;1.90;;
25637;SDS011;13496;51.040;13.680;2023-03-30T15:20:45;3.20;;;1.77;;
25637;SDS011;13496;51.040;13.680;2023-03-30T15:25:47;4.63;;;1.42;;
25637;SDS011;13496;51.040;13.680;2023-03-30T15:30:50;2.88;;;1.75;;
25637;SDS011;13496;51.040;13.680;2023-03-30T15:35:54;1.90;;;1.45;;
25637;SDS011;13496;51.040;13.680;2023-03-30T15:40:56;1.90;;;1.55;;
25637;SDS011;13496;51.040;13.680;2023-03-30T15:46:04;1.65;;;1.38;;
25637;SDS011;13496;51.040;13.680;2023-03-30T15:51:10;3.17;;;1.67;;
25637;SDS011;13496;51.040;13.680;2023-03-30T15:56:38;1.85;;;1.38;;
25637;SDS011;13496;51.040;13.680;2023-03-30T16:01:43;2.10;;;1.50;;
25637;SDS011;13496;51.040;13.680;2023-03-30T16:06:49;1.80;;;1.50;;
25637;SDS011;13496;51.040;13.680;2023-03-30T16:11:52;2.83;;;1.88;;
25637;SDS011;13496;51.040;13.680;2023-03-30T16:16:54;1.63;;;1.40;;
25637;SDS011;13496;51.040;13.680;2023-03-30T16:21:56;2.75;;;1.58;;
25637;SDS011;13496;51.040;13.680;2023-03-30T16:26:57;2.30;;;1.60;;
25637;SDS011;13496;51.040;13.680;2023-03-30T16:31:59;2.67;;;1.55;;
25637;SDS011;13496;51.040;13.680;2023-03-30T16:37:01;1.98;;;1.60;;
25637;SDS011;13496;51.040;13.680;2023-03-30T16:42:03;2.60;;;1.42;;
25637;SDS011;13496;51.040;13.680;2023-03-30T16:47:05;1.60;;;1.50;;
25637;SDS011;13496;51.040;13.680;2023-03-30T16:52:07;3.78;;;1.70;;
25637;SDS011;13496;51.040;13.680;2023-03-30T16:57:09;4.03;;;1.90;;
25637;SDS011;13496;51.040;13.680;2023-03-30T17:02:10;3.80;;;1.55;;
25637;SDS011;13496;51.040;13.680;2023-03-30T17:07:13;1.98;;;1.58;;
25637;SDS011;13496;51.040;13.680;2023-03-30T17:12:14;3.17;;;1.90;;
25637;SDS011;13496;51.040;13.680;2023-03-30T17:17:16;4.65;;;1.85;;
25637;SDS011;13496;51.040;13.680;2023-03-30T17:22:18;5.67;;;2.10;;
25637;SDS011;13496;51.040;13.680;2023-03-30T17:27:19;3.78;;;2.05;;
25637;SDS011;13496;51.040;13.680;2023-03-30T17:32:21;4.22;;;2.40;;
25637;SDS011;13496;51.040;13.680;2023-03-30T17:37:23;3.33;;;2.47;;
25637;SDS011;13496;51.040;13.680;2023-03-30T17:42:24;3.65;;;2.40;;
25637;SDS011;13496;51.040;13.680;2023-03-30T17:47:26;3.83;;;2.30;;
25637;SDS011;13496;51.040;13.680;2023-03-30T17:52:28;4.43;;;2.58;;
25637;SDS011;13496;51.040;13.680;2023-03-30T17:57:30;3.78;;;2.28;;
25637;SDS011;13496;51.040;13.680;2023-03-30T18:02:32;2.95;;;2.20;;
25637;SDS011;13496;51.040;13.680;2023-03-30T18:07:33;4.78;;;2.83;;
25637;SDS011;13496;51.040;13.680;2023-03-30T18:12:35;3.77;;;2.70;;
25637;SDS011;13496;51.040;13.680;2023-03-30T18:17:37;4.18;;;2.72;;
25637;SDS011;13496;51.040;13.680;2023-03-30T18:22:38;3.67;;;3.00;;
25637;SDS011;13496;51.040;13.680;2023-03-30T18:27:40;5.60;;;3.20;;
25637;SDS011;13496;51.040;13.680;2023-03-30T18:32:46;6.18;;;3.15;;
25637;SDS011;13496;51.040;13.680;2023-03-30T18:37:49;7.43;;;4.07;;
25637;SDS011;13496;51.040;13.680;2023-03-30T18:42:51;6.13;;;3.70;;
25637;SDS011;13496;51.040;13.680;2023-03-30T18:47:54;6.35;;;4.20;;
25637;SDS011;13496;51.040;13.680;2023-03-30T18:52:56;7.10;;;4.53;;
25637;SDS011;13496;51.040;13.680;2023-03-30T18:57:58;8.27;;;4.68;;
25637;SDS011;13496;51.040;13.680;2023-03-30T19:03:00;7.32;;;4.82;;
25637;SDS011;13496;51.040;13.680;2023-03-30T19:08:05;8.45;;;5.15;;
25637;SDS011;13496;51.040;13.680;2023-03-30T19:13:10;8.23;;;5.57;;
25637;SDS011;13496;51.040;13.680;2023-03-30T19:18:14;6.53;;;4.65;;
25637;SDS011;13496;51.040;13.680;2023-03-30T19:23:16;8.45;;;5.18;;
25637;SDS011;13496;51.040;13.680;2023-03-30T19:28:18;7.88;;;5.70;;
25637;SDS011;13496;51.040;13.680;2023-03-30T19:33:20;8.70;;;5.85;;
25637;SDS011;13496;51.040;13.680;2023-03-30T19:38:22;8.68;;;5.68;;
25637;SDS011;13496;51.040;13.680;2023-03-30T19:43:23;9.00;;;5.57;;
25637;SDS011;13496;51.040;13.680;2023-03-30T19:48:25;9.02;;;5.63;;
25637;SDS011;13496;51.040;13.680;2023-03-30T19:53:27;10.03;;;5.63;;
25637;SDS011;13496;51.040;13.680;2023-03-30T19:58:29;12.43;;;6.00;;
25637;SDS011;13496;51.040;13.680;2023-03-30T20:03:31;9.23;;;6.00;;
25637;SDS011;13496;51.040;13.680;2023-03-30T20:08:32;8.32;;;5.60;;
25637;SDS011;13496;51.040;13.680;2023-03-30T20:13:34;7.90;;;5.60;;
25637;SDS011;13496;51.040;13.680;2023-03-30T20:18:36;7.78;;;4.90;;
25637;SDS011;13496;51.040;13.680;2023-03-30T20:23:40;10.07;;;5.93;;
25637;SDS011;13496;51.040;13.680;2023-03-30T20:28:42;9.70;;;5.53;;
25637;SDS011;13496;51.040;13.680;2023-03-30T20:33:43;8.20;;;5.50;;
25637;SDS011;13496;51.040;13.680;2023-03-30T20:38:45;9.02;;;5.88;;
25637;SDS011;13496;51.040;13.680;2023-03-30T20:43:47;9.50;;;6.32;;
25637;SDS011;13496;51.040;13.680;2023-03-30T20:48:50;9.75;;;5.70;;
25637;SDS011;13496;51.040;13.680;2023-03-30T20:53:54;8.85;;;6.05;;
25637;SDS011;13496;51.040;13.680;2023-03-30T20:58:56;8.33;;;5.37;;
25637;SDS011;13496;51.040;13.680;2023-03-30T21:03:58;8.50;;;5.85;;
25637;SDS011;13496;51.040;13.680;2023-03-30T21:09:02;9.47;;;6.23;;
25637;SDS011;13496;51.040;13.680;2023-03-30T21:14:07;8.65;;;5.50;;
25637;SDS011;13496;51.040;13.680;2023-03-30T21:19:10;6.57;;;5.40;;
25637;SDS011;13496;51.040;13.680;2023-03-30T21:24:12;7.28;;;5.20;;
25637;SDS011;13496;51.040;13.680;2023-03-30T21:29:15;10.40;;;6.15;;
25637;SDS011;13496;51.040;13.680;2023-03-30T21:34:17;7.10;;;5.43;;
25637;SDS011;13496;51.040;13.680;2023-03-30T21:39:19;7.25;;;5.55;;
25637;SDS011;13496;51.040;13.680;2023-03-30T21:44:20;7.60;;;4.95;;
25637;SDS011;13496;51.040;13.680;2023-03-30T21:49:22;8.30;;;5.22;;
25637;SDS011;13496;51.040;13.680;2023-03-30T21:54:24;8.38;;;5.53;;
25637;SDS011;13496;51.040;13.680;2023-03-30T21:59:25;7.43;;;5.33;;
25637;SDS011;13496;51.040;13.680;2023-03-30T22:04:27;7.80;;;5.50;;
25637;SDS011;13496;51.040;13.680;2023-03-30T22:09:28;8.07;;;5.23;;
25637;SDS011;13496;51.040;13.680;2023-03-30T22:14:30;7.37;;;4.93;;
25637;SDS011;13496;51.040;13.680;2023-03-30T22:19:32;7.35;;;5.00;;
25637;SDS011;13496;51.040;13.680;2023-03-30T22:24:34;5.17;;;4.23;;
25637;SDS011;13496;51.040;13.680;2023-03-30T22:29:36;7.00;;;4.80;;
25637;SDS011;13496;51.040;13.680;2023-03-30T22:34:37;7.30;;;4.67;;
25637;SDS011;13496;51.040;13.680;2023-03-30T22:39:39;7.43;;;4.45;;
25637;SDS011;13496;51.040;13.680;2023-03-30T22:44:41;5.77;;;4.33;;
25637;SDS011;13496;51.040;13.680;2023-03-30T22:49:43;6.57;;;4.80;;
25637;SDS011;13496;51.040;13.680;2023-03-30T22:54:45;5.55;;;4.25;;
25637;SDS011;13496;51.040;13.680;2023-03-30T22:59:46;5.57;;;4.43;;
25637;SDS011;13496;51.040;13.680;2023-03-30T23:04:49;6.00;;;4.47;;
25637;SDS011;13496;51.040;13.680;2023-03-30T23:09:53;5.77;;;4.47;;
25637;SDS011;13496;51.040;13.680;2023-03-30T23:14:58;6.00;;;4.53;;
25637;SDS011;13496;51.040;13.680;2023-03-30T23:20:01;6.10;;;4.30;;
25637;SDS011;13496;51.040;13.680;2023-03-30T23:25:05;4.97;;;3.93;;
25637;SDS011;13496;51.040;13.680;2023-03-30T23:30:08;5.93;;;4.20;;
25637;SDS011;13496;51.040;13.680;2023-03-30T23:35:10;6.67;;;4.40;;
25637;SDS011;13496;51.040;13.680;2023-03-30T23:40:11;5.00;;;4.07;;
25637;SDS011;13496;51.040;13.680;2023-03-30T23:45:13;5.37;;;3.93;;
25637;SDS011;13496;51.040;13.680;2023-03-30T23:50:15;4.77;;;3.73;;
25637;SDS011;13496;51.040;13.680;2023-03-30T23:55:17;4.70;;;3.70;;
